Landels-Hill Big Creek Reserve Entrance, California Weather observations

Data are for 10 minute period ending at time listed.
 Day   Time   Solar   Ave.   Ave.  Ave.  Vector  Max.   Baro.   Total    
  of    of     Rad.   Air    Rel.  Wind   Wind   Wind  Press.  Precip.   
Year   Day            Temp.  Hum.  Speed  Dir.   Gust                    
2014   (PST)  Kw/m2    F      %     mph   deg.    mph    mb.     in.     
-------------------------------------------------------------------------
 244   15:20   0.59   64.3    79    3.9   164     8.5   1006.9    0.00 
 244   15:30   0.56   64.1    80    3.4   174     8.7   1006.9    0.00 
 244   15:40   0.54   64.4    79    3.0   175     7.6   1006.8    0.00 
 244   15:50   0.51   64.8    78    3.4   170     8.6   1006.8    0.00 
 244   16:00   0.47   64.7    78    2.9   173     6.9   1006.8    0.00 
 244   16:10   0.44   65.0    77    2.8   170     6.3   1006.6    0.00 
 244   16:20   0.41   65.0    77    3.1   181     7.3   1006.5    0.00 
 244   16:30   0.37   64.5    78    3.3   181     7.6   1006.5    0.00 
 244   16:40   0.34   63.9    80    2.9   161     8.0   1006.5    0.00 
 244   16:50   0.30   63.9    80    3.0   166     6.4   1006.5    0.00 
 244   17:00   0.27   63.9    80    2.1   160     6.9   1006.6    0.00 
 244   17:10   0.23   64.6    78    1.8   179     5.2   1006.6    0.00 
 244   17:20   0.16   63.8    80    1.4   194     3.8   1006.5    0.00 
 244   17:30   0.06   62.5    82    1.1   211     3.0   1006.3    0.00 
 244   17:40   0.04   61.4    85    0.8   237     2.6   1006.0    0.00 
 244   17:50   0.04   60.7    87    0.7   232     1.9   1005.7    0.00 
 244   18:00   0.03   60.3    88    0.7   229     2.1   1005.5    0.00 
 244   18:10   0.02   60.0    89    0.6   256     2.5   1005.5    0.00 
 244   18:20   0.01   59.8    90    0.2   348     0.9   1005.5    0.00 
 244   18:30   0.01   59.8    90    1.4    33     3.6   1005.4    0.00 
 244   18:40   0.01   60.1    89    1.7    70     3.9   1005.4    0.00 
 244   18:50   0.00   60.4    88    0.5   360     1.2   1005.5    0.00 
 244   19:00   0.00   60.0    88    0.9   169     2.2   1005.7    0.00 
 244   19:10   0.00   59.6    89    0.1   246     1.6   1005.8    0.00 
 244   19:20   0.00   59.2    89    0.0     0     0.0   1005.9    0.00 
 244   19:30   0.00   58.9    90    0.0   262     0.7   1005.9    0.00 
 244   19:40   0.00   58.7    90    0.6   358     1.8   1006.0    0.00 
 244   19:50   0.00   58.5    91    1.3    18     2.5   1006.1    0.00 
 244   20:00   0.00   58.4    91    0.6     4     1.9   1006.3    0.00 
 244   20:10   0.00   58.2    91    1.5     6     3.0   1006.3    0.00 
 244   20:20   0.00   58.0    91    1.4    21     3.5   1006.4    0.00 
 244   20:30   0.00   58.0    91    1.3    40     3.0   1006.5    0.00 
 244   20:40   0.00   58.1    91    1.2    36     4.2   1006.6    0.00 
 244   20:50   0.00   58.2    91    1.3    16     3.5   1006.6    0.00 
 244   21:00   0.00   58.3    91    0.6    29     2.4   1006.6    0.00 
 244   21:10   0.00   58.1    90    0.3   356     2.0   1006.7    0.00 
 244   21:20   0.00   57.7    90    1.2    16     2.8   1006.7    0.00 
 244   21:30   0.00   57.3    91    1.9    14     3.4   1006.7    0.00 
 244   21:40   0.00   57.1    91    2.0     3     3.7   1006.7    0.00 
 244   21:50   0.00   57.2    92    1.0    19     2.6   1007.0    0.00 
 244   22:00   0.00   57.4    92    1.3    46     3.4   1007.1    0.00 
 244   22:10   0.00   57.8    92    1.2    28     3.0   1007.2    0.00 
 244   22:20   0.00   58.2    91    0.9    53     4.2   1007.1    0.00 
 244   22:30   0.00   58.8    90    0.2    93     1.8   1007.1    0.00 
 244   22:40   0.00   58.9    90    0.6   356     3.1   1007.1    0.00 
 244   22:50   0.00   58.9    89    0.8    34     2.5   1007.1    0.00 
 244   23:00   0.00   59.1    89    0.7    28     1.7   1007.0    0.00 
 244   23:10   0.00   59.3    88    0.6    25     1.7   1007.1    0.00 
 244   23:20   0.00   59.3    88    0.1   108     1.0   1007.0    0.00 
 244   23:30   0.00   59.6    88    0.4    12     1.8   1007.0    0.00 
 244   23:40   0.00   59.6    87    0.3     0     1.5   1007.0    0.00 
 244   23:50   0.00   59.6    87    0.4   360     2.0   1006.9    0.00 
 245    0:00   0.00   59.7    87    0.4   355     1.4   1006.9    0.00 
 245    0:10   0.00   59.8    87    0.5   344     1.6   1006.9    0.00 
 245    0:20   0.00   59.8    87    0.2   355     1.1   1006.9    0.00 
 245    0:30   0.00   59.9    87    0.2   354     1.0   1006.8    0.00 
 245    0:40   0.00   60.0    86    0.2   354     0.9   1006.7    0.00 
 245    0:50   0.00   60.0    86    0.2   352     0.9   1006.6    0.00 
 245    1:00   0.00   60.1    86    0.4   350     2.3   1006.6    0.00 
 245    1:10   0.00   60.2    87    0.4   352     3.6   1006.4    0.00 
 245    1:20   0.00   60.4    88    1.2   346     2.9   1006.3    0.00 
 245    1:30   0.00   60.6    88    0.6     2     2.9   1006.2    0.00 
 245    1:40   0.00   60.6    88    0.4   346     2.3   1006.2    0.00 
 245    1:50   0.00   60.4    88    1.0   301     3.0   1006.3    0.00 
 245    2:00   0.00   60.3    90    1.1   290     3.4   1006.3    0.00 
 245    2:10   0.00   60.2    90    0.9     4     2.8   1006.3    0.00 
 245    2:20   0.00   60.0    89    0.4   312     3.0   1006.2    0.00 
 245    2:30   0.00   59.9    89    0.6     4     2.1   1006.3    0.00 
 245    2:40   0.00   59.8    89    0.2   357     1.6   1006.3    0.00 
 245    2:50   0.00   59.8    89    0.4   351     2.4   1006.4    0.00 
 245    3:00   0.00   59.8    89    0.7   333     2.4   1006.4    0.00 
 245    3:10   0.00   59.5    89    1.3   344     2.8   1006.4    0.00 
 245    3:20   0.00   59.4    89    0.8     0     2.9   1006.5    0.00 
 245    3:30   0.00   59.3    89    0.8   348     2.6   1006.6    0.00 
 245    3:40   0.00   59.3    89    0.8    36     2.0   1006.5    0.00 
 245    3:50   0.00   59.3    89    0.2   347     0.9   1006.4    0.00 
 245    4:00   0.00   59.3    89    0.2     5     1.5   1006.4    0.00 
 245    4:10   0.00   59.2    89    0.7   357     2.5   1006.5    0.00 
 245    4:20   0.00   59.1    89    1.1   341     3.0   1006.6    0.00 
 245    4:30   0.00   59.0    89    1.0   341     3.1   1006.7    0.00 
 245    4:40   0.00   58.9    89    1.1   350     3.1   1006.7    0.00 
 245    4:50   0.00   58.8    90    0.7   349     2.7   1006.8    0.00 
 245    5:00   0.00   58.8    90    0.9   351     3.9   1006.9    0.00 
 245    5:10   0.00   58.5    90    1.1   348     3.7   1007.0    0.00 
 245    5:20   0.00   58.5    90    1.0   360     3.1   1007.2    0.00 
 245    5:30   0.00   58.4    90    0.8   350     3.3   1007.4    0.00 
 245    5:40   0.00   58.3    90    1.3   347     4.4   1007.5    0.00 
 245    5:50   0.00   58.3    90    1.5   348     4.2   1007.6    0.00 
 245    6:00   0.01   58.2    90    0.7   341     2.4   1007.8    0.00 
 245    6:10   0.01   58.3    90    0.6   354     2.3   1008.0    0.00 
 245    6:20   0.01   58.1    90    1.4   359     4.3   1008.0    0.00 
 245    6:30   0.02   57.9    90    1.4   360     4.5   1008.1    0.00 
 245    6:40   0.03   58.0    90    1.6   354     4.8   1008.2    0.00 
 245    6:50   0.04   58.2    90    1.3   347     3.4   1008.3    0.00 
 245    7:00   0.05   58.3    90    1.3   355     3.4   1008.2    0.00 
 245    7:10   0.07   58.5    90    1.1   340     2.9   1008.3    0.00 
 245    7:20   0.07   59.0    90    0.5   339     1.9   1008.4    0.00 
 245    7:30   0.08   59.4    89    0.4   338     1.9   1008.4    0.00 
 245    7:40   0.10   59.8    89    0.3   288     1.6   1008.5    0.00 
 245    7:50   0.10   59.8    89    0.9   256     1.9   1008.5    0.00 
 245    8:00   0.11   59.8    90    0.9   210     2.2   1008.5    0.00 
 245    8:10   0.12   60.0    90    0.6   172     1.8   1008.6    0.00 
 245    8:20   0.14   60.4    89    0.5   254     2.1   1008.6    0.00 
 245    8:30   0.16   60.7    88    0.8   245     2.5   1008.6    0.00 
 245    8:40   0.18   60.9    88    0.8   237     2.6   1008.6    0.00 
 245    8:50   0.21   61.2    86    0.8   224     2.5   1008.6    0.00 
 245    9:00   0.25   61.5    84    1.2   206     2.9   1008.6    0.00 
 245    9:10   0.21   61.6    84    1.0   200     2.9   1008.7    0.00 
 245    9:20   0.20   61.8    84    0.5   207     2.8   1008.7    0.00 
 245    9:30   0.20   62.1    84    0.8   198     2.2   1008.8    0.00 
 245    9:40   0.21   61.7    84    0.8   191     2.6   1008.9    0.00 
 245    9:50   0.24   61.2    85    0.9   206     3.0   1008.9    0.00 
 245   10:00   0.29   61.5    85    1.1    24     2.9   1008.9    0.00 
 245   10:10   0.32   62.7    81    1.1   190     3.5   1008.9    0.00 
 245   10:20   0.31   63.0    80    1.0   190     3.0   1009.1    0.00 
 245   10:30   0.33   63.3    79    1.4   206     2.9   1009.3    0.00 
 245   10:40   0.36   62.8    81    1.4   175     3.8   1009.2    0.00 
 245   10:50   0.41   62.6    81    1.4   162     4.1   1009.1    0.00 
 245   11:00   0.74   63.4    79    1.3   142     4.5   1009.0    0.00 
 245   11:10   0.84   64.8    75    1.6   138     3.9   1009.0    0.00 
 245   11:20   0.47   64.9    75    1.9   122     5.8   1009.2    0.00 
 245   11:30   0.45   62.9    80    2.1    75     6.4   1009.3    0.00 
 245   11:40   0.65   62.3    81    3.3    61     5.7   1009.2    0.00 
 245   11:50   0.92   63.0    80    2.3    71     5.1   1009.0    0.00 
 245   12:00   0.89   63.2    79    2.6    89     9.0   1008.8    0.00 
 245   12:10   0.89   62.3    81    5.0   106    12.3   1008.6    0.00 
 245   12:20   0.91   61.8    83    5.3    98     9.5   1008.5    0.00 
 245   12:30   0.88   62.4    82    3.3   138     7.2   1008.4    0.00 
 245   12:40   0.87   63.2    80    2.4    45     5.8   1008.4    0.00 
 245   12:50   0.89   63.5    78    3.5    54     7.9   1008.4    0.00 
 245   13:00   0.94   64.3    76    3.1    78     6.6   1008.5    0.00 
 245   13:10   0.87   63.4    79    3.1   101     6.9   1008.4    0.00 
 245   13:20   0.86   64.0    78    4.2   129     8.8   1008.4    0.00 
 245   13:30   0.87   63.5    79    6.1   107    11.5   1008.3    0.00 
 245   13:40   0.81   63.0    81    7.9   147    15.0   1008.2    0.00 
 245   13:50   0.78   63.0    82    6.9   146    12.9   1008.1    0.00 
 245   14:00   0.71   62.7    82    8.4   143    14.8   1007.9    0.00 
 245   14:10   0.67   62.9    82    8.6   156    14.3   1007.8    0.00 
 245   14:20   0.57   62.9    83    8.2   161    16.7   1007.7    0.00 
 245   14:30   0.48   62.7    84    8.8   162    15.3   1007.5    0.00 
 245   14:40   0.46   63.5    82    4.9   170    12.1   1007.3    0.00 
 245   14:50   0.35   63.4    82    7.2   170    14.0   1007.3    0.00 
 245   15:00   0.29   63.0    84    6.0   169    14.8   1007.1    0.00 
 245   15:10   0.36   63.4    82    6.3   154    13.7   1006.9    0.00 

Return to Big Creek Reserve Entrance graphs page.


Western Regional Climate Center,wrcc@dri.edu